sensor_id;sensor_type;location;lat;lon;timestamp;temperature;humidity
2024;DHT22;1016;48.770;9.154;2023-11-18T00:00:31;11.20;99.90
2024;DHT22;1016;48.770;9.154;2023-11-18T00:02:57;11.10;99.90
2024;DHT22;1016;48.770;9.154;2023-11-18T00:05:22;11.10;99.90
2024;DHT22;1016;48.770;9.154;2023-11-18T00:07:49;11.10;99.90
2024;DHT22;1016;48.770;9.154;2023-11-18T00:10:15;11.10;99.90
2024;DHT22;1016;48.770;9.154;2023-11-18T00:12:41;11.20;99.90
2024;DHT22;1016;48.770;9.154;2023-11-18T00:15:07;11.20;99.90
2024;DHT22;1016;48.770;9.154;2023-11-18T00:17:39;11.20;99.90
2024;DHT22;1016;48.770;9.154;2023-11-18T00:20:06;11.10;99.90
2024;DHT22;1016;48.770;9.154;2023-11-18T00:22:35;11.20;99.90
2024;DHT22;1016;48.770;9.154;2023-11-18T00:25:02;11.10;99.90
2024;DHT22;1016;48.770;9.154;2023-11-18T00:27:31;11.40;99.90
2024;DHT22;1016;48.770;9.154;2023-11-18T00:29:56;11.20;99.90
2024;DHT22;1016;48.770;9.154;2023-11-18T00:32:23;11.30;99.90
2024;DHT22;1016;48.770;9.154;2023-11-18T00:34:49;11.20;99.90
2024;DHT22;1016;48.770;9.154;2023-11-18T00:37:14;11.20;99.90
2024;DHT22;1016;48.770;9.154;2023-11-18T00:39:40;11.20;99.90
2024;DHT22;1016;48.770;9.154;2023-11-18T00:42:06;11.20;99.90
2024;DHT22;1016;48.770;9.154;2023-11-18T00:44:32;11.20;99.90
2024;DHT22;1016;48.770;9.154;2023-11-18T00:46:57;11.20;99.90
2024;DHT22;1016;48.770;9.154;2023-11-18T00:49:23;11.40;99.90
2024;DHT22;1016;48.770;9.154;2023-11-18T00:51:51;11.20;99.90
2024;DHT22;1016;48.770;9.154;2023-11-18T00:54:16;11.20;99.90
2024;DHT22;1016;48.770;9.154;2023-11-18T00:56:42;11.20;99.90
2024;DHT22;1016;48.770;9.154;2023-11-18T00:59:07;11.20;99.90
2024;DHT22;1016;48.770;9.154;2023-11-18T01:01:33;11.20;99.90
2024;DHT22;1016;48.770;9.154;2023-11-18T01:03:59;11.30;99.90
2024;DHT22;1016;48.770;9.154;2023-11-18T01:06:27;11.20;99.90
2024;DHT22;1016;48.770;9.154;2023-11-18T01:08:53;11.20;99.90
2024;DHT22;1016;48.770;9.154;2023-11-18T01:11:20;11.20;99.90
2024;DHT22;1016;48.770;9.154;2023-11-18T01:13:49;11.20;99.90
2024;DHT22;1016;48.770;9.154;2023-11-18T01:16:15;11.20;99.90
2024;DHT22;1016;48.770;9.154;2023-11-18T01:18:41;11.20;99.90
2024;DHT22;1016;48.770;9.154;2023-11-18T01:21:07;11.20;99.90
2024;DHT22;1016;48.770;9.154;2023-11-18T01:23:35;11.20;99.90
2024;DHT22;1016;48.770;9.154;2023-11-18T01:26:01;11.30;99.90
2024;DHT22;1016;48.770;9.154;2023-11-18T01:28:36;11.40;99.90
2024;DHT22;1016;48.770;9.154;2023-11-18T01:31:09;11.30;99.90
2024;DHT22;1016;48.770;9.154;2023-11-18T01:33:39;11.30;99.90
2024;DHT22;1016;48.770;9.154;2023-11-18T01:36:09;11.40;99.90
2024;DHT22;1016;48.770;9.154;2023-11-18T01:38:38;11.30;99.90
2024;DHT22;1016;48.770;9.154;2023-11-18T01:41:05;11.30;99.90
2024;DHT22;1016;48.770;9.154;2023-11-18T01:43:31;11.30;99.90
2024;DHT22;1016;48.770;9.154;2023-11-18T01:46:02;11.30;99.90
2024;DHT22;1016;48.770;9.154;2023-11-18T01:48:29;11.20;99.90
2024;DHT22;1016;48.770;9.154;2023-11-18T01:50:57;11.20;99.90
2024;DHT22;1016;48.770;9.154;2023-11-18T01:53:26;11.20;99.90
2024;DHT22;1016;48.770;9.154;2023-11-18T01:55:52;11.10;99.90
2024;DHT22;1016;48.770;9.154;2023-11-18T01:58:18;11.20;99.90
2024;DHT22;1016;48.770;9.154;2023-11-18T02:00:45;11.10;99.90
2024;DHT22;1016;48.770;9.154;2023-11-18T02:03:12;11.10;99.90
2024;DHT22;1016;48.770;9.154;2023-11-18T02:05:38;11.20;99.90
2024;DHT22;1016;48.770;9.154;2023-11-18T02:08:05;11.20;99.90
2024;DHT22;1016;48.770;9.154;2023-11-18T02:10:37;11.20;99.90
2024;DHT22;1016;48.770;9.154;2023-11-18T02:13:15;11.00;99.90
2024;DHT22;1016;48.770;9.154;2023-11-18T02:15:44;11.40;99.90
2024;DHT22;1016;48.770;9.154;2023-11-18T02:18:11;11.30;99.90
2024;DHT22;1016;48.770;9.154;2023-11-18T02:20:39;11.20;99.90
2024;DHT22;1016;48.770;9.154;2023-11-18T02:23:04;11.20;99.90
2024;DHT22;1016;48.770;9.154;2023-11-18T02:25:33;11.10;99.90
2024;DHT22;1016;48.770;9.154;2023-11-18T02:27:59;11.10;99.90
2024;DHT22;1016;48.770;9.154;2023-11-18T02:30:25;11.30;99.90
2024;DHT22;1016;48.770;9.154;2023-11-18T02:33:07;11.10;99.90
2024;DHT22;1016;48.770;9.154;2023-11-18T02:35:48;11.20;99.90
2024;DHT22;1016;48.770;9.154;2023-11-18T02:38:19;11.20;99.90
2024;DHT22;1016;48.770;9.154;2023-11-18T02:40:47;11.20;99.90
2024;DHT22;1016;48.770;9.154;2023-11-18T02:43:16;11.20;99.90
2024;DHT22;1016;48.770;9.154;2023-11-18T02:45:43;11.30;99.90
2024;DHT22;1016;48.770;9.154;2023-11-18T02:48:10;11.20;99.90
2024;DHT22;1016;48.770;9.154;2023-11-18T02:50:35;11.20;99.90
2024;DHT22;1016;48.770;9.154;2023-11-18T02:53:01;11.20;99.90
2024;DHT22;1016;48.770;9.154;2023-11-18T02:55:28;11.20;99.90
2024;DHT22;1016;48.770;9.154;2023-11-18T02:57:53;11.30;99.90
2024;DHT22;1016;48.770;9.154;2023-11-18T03:00:20;11.20;99.90
2024;DHT22;1016;48.770;9.154;2023-11-18T03:02:49;11.20;99.90
2024;DHT22;1016;48.770;9.154;2023-11-18T03:05:17;11.20;99.90
2024;DHT22;1016;48.770;9.154;2023-11-18T03:07:43;11.20;99.90
2024;DHT22;1016;48.770;9.154;2023-11-18T03:10:10;11.20;99.90
2024;DHT22;1016;48.770;9.154;2023-11-18T03:12:49;11.20;99.90
2024;DHT22;1016;48.770;9.154;2023-11-18T03:15:15;11.40;99.90
2024;DHT22;1016;48.770;9.154;2023-11-18T03:17:45;11.20;99.90
2024;DHT22;1016;48.770;9.154;2023-11-18T03:20:12;11.20;99.90
2024;DHT22;1016;48.770;9.154;2023-11-18T03:22:41;11.20;99.90
2024;DHT22;1016;48.770;9.154;2023-11-18T03:25:07;11.20;99.90
2024;DHT22;1016;48.770;9.154;2023-11-18T03:27:33;11.20;99.90
2024;DHT22;1016;48.770;9.154;2023-11-18T03:29:59;11.10;99.90
2024;DHT22;1016;48.770;9.154;2023-11-18T03:32:24;11.10;99.90
2024;DHT22;1016;48.770;9.154;2023-11-18T03:34:50;11.10;99.90
2024;DHT22;1016;48.770;9.154;2023-11-18T03:37:15;11.10;99.90
2024;DHT22;1016;48.770;9.154;2023-11-18T03:39:41;11.10;99.90
2024;DHT22;1016;48.770;9.154;2023-11-18T03:42:06;11.40;99.90
2024;DHT22;1016;48.770;9.154;2023-11-18T03:44:33;11.20;99.90
2024;DHT22;1016;48.770;9.154;2023-11-18T03:46:59;11.20;99.90
2024;DHT22;1016;48.770;9.154;2023-11-18T03:49:24;11.40;99.90
2024;DHT22;1016;48.770;9.154;2023-11-18T03:51:50;11.20;99.90
2024;DHT22;1016;48.770;9.154;2023-11-18T03:54:16;11.30;99.90
2024;DHT22;1016;48.770;9.154;2023-11-18T03:56:42;11.20;99.90
2024;DHT22;1016;48.770;9.154;2023-11-18T03:59:07;11.20;99.90
2024;DHT22;1016;48.770;9.154;2023-11-18T04:01:33;11.20;99.90
2024;DHT22;1016;48.770;9.154;2023-11-18T04:03:59;11.20;99.90
2024;DHT22;1016;48.770;9.154;2023-11-18T04:06:25;11.30;99.90
2024;DHT22;1016;48.770;9.154;2023-11-18T04:08:51;11.30;99.90
2024;DHT22;1016;48.770;9.154;2023-11-18T04:11:17;11.20;99.90
2024;DHT22;1016;48.770;9.154;2023-11-18T04:13:43;11.30;99.90
2024;DHT22;1016;48.770;9.154;2023-11-18T04:16:15;11.30;99.90
2024;DHT22;1016;48.770;9.154;2023-11-18T04:18:43;11.30;99.90
2024;DHT22;1016;48.770;9.154;2023-11-18T04:21:09;11.50;99.90
2024;DHT22;1016;48.770;9.154;2023-11-18T04:23:41;11.30;99.90
2024;DHT22;1016;48.770;9.154;2023-11-18T04:26:07;11.20;99.90
2024;DHT22;1016;48.770;9.154;2023-11-18T04:28:34;11.20;99.90
2024;DHT22;1016;48.770;9.154;2023-11-18T04:30:59;11.20;99.90
2024;DHT22;1016;48.770;9.154;2023-11-18T04:33:26;11.30;99.90
2024;DHT22;1016;48.770;9.154;2023-11-18T04:35:52;11.20;99.90
2024;DHT22;1016;48.770;9.154;2023-11-18T04:38:20;11.10;99.90
2024;DHT22;1016;48.770;9.154;2023-11-18T04:40:47;11.10;99.90
2024;DHT22;1016;48.770;9.154;2023-11-18T04:43:12;11.10;99.90
2024;DHT22;1016;48.770;9.154;2023-11-18T04:45:38;11.00;99.90
2024;DHT22;1016;48.770;9.154;2023-11-18T04:48:04;11.00;99.90
2024;DHT22;1016;48.770;9.154;2023-11-18T04:50:30;11.00;99.90
2024;DHT22;1016;48.770;9.154;2023-11-18T04:52:57;11.00;99.90
2024;DHT22;1016;48.770;9.154;2023-11-18T04:55:22;10.90;99.90
2024;DHT22;1016;48.770;9.154;2023-11-18T04:57:48;10.90;99.90
2024;DHT22;1016;48.770;9.154;2023-11-18T05:00:14;10.80;99.90
2024;DHT22;1016;48.770;9.154;2023-11-18T05:02:43;10.90;99.90
2024;DHT22;1016;48.770;9.154;2023-11-18T05:05:10;10.90;99.90
2024;DHT22;1016;48.770;9.154;2023-11-18T05:07:36;10.90;99.90
2024;DHT22;1016;48.770;9.154;2023-11-18T05:10:03;10.80;99.90
2024;DHT22;1016;48.770;9.154;2023-11-18T05:12:29;10.80;99.90
2024;DHT22;1016;48.770;9.154;2023-11-18T05:14:55;10.80;99.90
2024;DHT22;1016;48.770;9.154;2023-11-18T05:17:23;10.80;99.90
2024;DHT22;1016;48.770;9.154;2023-11-18T05:19:48;10.70;99.90
2024;DHT22;1016;48.770;9.154;2023-11-18T05:22:14;10.70;99.90
2024;DHT22;1016;48.770;9.154;2023-11-18T05:24:39;10.90;99.90
2024;DHT22;1016;48.770;9.154;2023-11-18T05:27:05;10.90;99.90
2024;DHT22;1016;48.770;9.154;2023-11-18T05:29:32;10.80;99.90
2024;DHT22;1016;48.770;9.154;2023-11-18T05:31:57;10.90;99.90
2024;DHT22;1016;48.770;9.154;2023-11-18T05:34:23;10.60;99.90
2024;DHT22;1016;48.770;9.154;2023-11-18T05:36:49;10.60;99.90
2024;DHT22;1016;48.770;9.154;2023-11-18T05:39:23;10.60;99.90
2024;DHT22;1016;48.770;9.154;2023-11-18T05:41:53;10.60;99.90
2024;DHT22;1016;48.770;9.154;2023-11-18T05:44:21;10.80;99.90
2024;DHT22;1016;48.770;9.154;2023-11-18T05:46:56;10.80;99.90
2024;DHT22;1016;48.770;9.154;2023-11-18T05:49:22;10.70;99.90
2024;DHT22;1016;48.770;9.154;2023-11-18T05:51:49;10.80;99.90
2024;DHT22;1016;48.770;9.154;2023-11-18T05:54:15;10.80;99.90
2024;DHT22;1016;48.770;9.154;2023-11-18T05:56:41;10.80;99.90
2024;DHT22;1016;48.770;9.154;2023-11-18T05:59:06;10.80;99.90
2024;DHT22;1016;48.770;9.154;2023-11-18T06:01:33;10.80;99.90
2024;DHT22;1016;48.770;9.154;2023-11-18T06:04:00;10.80;99.90
2024;DHT22;1016;48.770;9.154;2023-11-18T06:06:26;10.80;99.90
2024;DHT22;1016;48.770;9.154;2023-11-18T06:08:53;10.80;99.90
2024;DHT22;1016;48.770;9.154;2023-11-18T06:11:20;10.70;99.90
2024;DHT22;1016;48.770;9.154;2023-11-18T06:13:50;10.70;99.90
2024;DHT22;1016;48.770;9.154;2023-11-18T06:16:20;10.70;99.90
2024;DHT22;1016;48.770;9.154;2023-11-18T06:18:47;10.90;99.90
2024;DHT22;1016;48.770;9.154;2023-11-18T06:21:22;10.70;99.90
2024;DHT22;1016;48.770;9.154;2023-11-18T06:23:53;10.70;99.90
2024;DHT22;1016;48.770;9.154;2023-11-18T06:26:20;10.80;99.90
2024;DHT22;1016;48.770;9.154;2023-11-18T06:28:48;10.70;99.90
2024;DHT22;1016;48.770;9.154;2023-11-18T06:31:17;10.70;99.90
2024;DHT22;1016;48.770;9.154;2023-11-18T06:33:44;10.70;99.90
2024;DHT22;1016;48.770;9.154;2023-11-18T06:36:16;10.70;99.90
2024;DHT22;1016;48.770;9.154;2023-11-18T06:38:43;10.80;99.90
2024;DHT22;1016;48.770;9.154;2023-11-18T06:41:12;10.80;99.90
2024;DHT22;1016;48.770;9.154;2023-11-18T06:43:45;10.70;99.90
2024;DHT22;1016;48.770;9.154;2023-11-18T06:46:23;10.70;99.90
2024;DHT22;1016;48.770;9.154;2023-11-18T06:48:51;10.80;99.90
2024;DHT22;1016;48.770;9.154;2023-11-18T06:51:20;10.70;99.90
2024;DHT22;1016;48.770;9.154;2023-11-18T06:53:47;10.70;99.90
2024;DHT22;1016;48.770;9.154;2023-11-18T06:56:12;10.60;99.90
2024;DHT22;1016;48.770;9.154;2023-11-18T06:58:39;10.60;99.90
2024;DHT22;1016;48.770;9.154;2023-11-18T07:01:05;10.60;99.90
2024;DHT22;1016;48.770;9.154;2023-11-18T07:03:31;10.60;99.90
2024;DHT22;1016;48.770;9.154;2023-11-18T07:05:57;10.60;99.90
2024;DHT22;1016;48.770;9.154;2023-11-18T07:08:22;10.60;99.90
2024;DHT22;1016;48.770;9.154;2023-11-18T07:10:49;10.60;99.90
2024;DHT22;1016;48.770;9.154;2023-11-18T07:13:15;10.60;99.90
2024;DHT22;1016;48.770;9.154;2023-11-18T07:15:41;10.50;99.90
2024;DHT22;1016;48.770;9.154;2023-11-18T07:18:07;10.50;99.90
2024;DHT22;1016;48.770;9.154;2023-11-18T07:20:34;10.50;99.90
2024;DHT22;1016;48.770;9.154;2023-11-18T07:23:00;10.60;99.90
2024;DHT22;1016;48.770;9.154;2023-11-18T07:25:26;10.60;99.90
2024;DHT22;1016;48.770;9.154;2023-11-18T07:27:51;10.60;99.90
2024;DHT22;1016;48.770;9.154;2023-11-18T07:30:17;10.50;99.90
2024;DHT22;1016;48.770;9.154;2023-11-18T07:32:44;10.50;99.90
2024;DHT22;1016;48.770;9.154;2023-11-18T07:35:09;10.60;99.90
2024;DHT22;1016;48.770;9.154;2023-11-18T07:37:38;10.60;99.90
2024;DHT22;1016;48.770;9.154;2023-11-18T07:40:04;10.60;99.90
2024;DHT22;1016;48.770;9.154;2023-11-18T07:42:31;10.60;99.90
2024;DHT22;1016;48.770;9.154;2023-11-18T07:45:00;10.60;99.90
2024;DHT22;1016;48.770;9.154;2023-11-18T07:47:29;10.60;99.90
2024;DHT22;1016;48.770;9.154;2023-11-18T07:49:59;10.60;99.90
2024;DHT22;1016;48.770;9.154;2023-11-18T07:52:26;10.60;99.90
2024;DHT22;1016;48.770;9.154;2023-11-18T07:54:53;10.60;99.90
2024;DHT22;1016;48.770;9.154;2023-11-18T07:57:19;10.60;99.90
2024;DHT22;1016;48.770;9.154;2023-11-18T07:59:44;10.60;99.90
2024;DHT22;1016;48.770;9.154;2023-11-18T08:02:10;10.70;99.90
2024;DHT22;1016;48.770;9.154;2023-11-18T08:04:36;10.60;99.90
2024;DHT22;1016;48.770;9.154;2023-11-18T08:07:02;10.70;99.90
2024;DHT22;1016;48.770;9.154;2023-11-18T08:09:30;10.70;99.90
2024;DHT22;1016;48.770;9.154;2023-11-18T08:11:57;10.90;99.90
2024;DHT22;1016;48.770;9.154;2023-11-18T08:14:22;10.70;99.90
2024;DHT22;1016;48.770;9.154;2023-11-18T08:16:48;10.70;99.90
2024;DHT22;1016;48.770;9.154;2023-11-18T08:19:15;10.90;99.90
2024;DHT22;1016;48.770;9.154;2023-11-18T08:21:41;10.80;99.90
2024;DHT22;1016;48.770;9.154;2023-11-18T08:24:07;10.80;99.90
2024;DHT22;1016;48.770;9.154;2023-11-18T08:26:34;10.80;99.90
2024;DHT22;1016;48.770;9.154;2023-11-18T08:29:00;10.80;99.90
2024;DHT22;1016;48.770;9.154;2023-11-18T08:31:26;10.90;99.90
2024;DHT22;1016;48.770;9.154;2023-11-18T08:33:52;10.90;99.90
2024;DHT22;1016;48.770;9.154;2023-11-18T08:36:20;10.90;99.90
2024;DHT22;1016;48.770;9.154;2023-11-18T08:38:46;10.90;99.90
2024;DHT22;1016;48.770;9.154;2023-11-18T08:41:12;10.90;99.90
2024;DHT22;1016;48.770;9.154;2023-11-18T08:43:38;10.90;99.90
2024;DHT22;1016;48.770;9.154;2023-11-18T08:46:06;10.90;99.90
2024;DHT22;1016;48.770;9.154;2023-11-18T08:48:32;10.90;99.90
2024;DHT22;1016;48.770;9.154;2023-11-18T08:50:59;10.90;99.90
2024;DHT22;1016;48.770;9.154;2023-11-18T08:53:28;10.90;99.90
2024;DHT22;1016;48.770;9.154;2023-11-18T08:55:54;11.10;99.90
2024;DHT22;1016;48.770;9.154;2023-11-18T08:58:20;11.10;99.90
2024;DHT22;1016;48.770;9.154;2023-11-18T09:00:54;10.90;99.90
2024;DHT22;1016;48.770;9.154;2023-11-18T09:03:24;10.90;99.90
2024;DHT22;1016;48.770;9.154;2023-11-18T09:05:58;10.90;99.90
2024;DHT22;1016;48.770;9.154;2023-11-18T09:08:28;10.70;99.90
2024;DHT22;1016;48.770;9.154;2023-11-18T09:10:58;10.90;99.90
2024;DHT22;1016;48.770;9.154;2023-11-18T09:13:25;11.00;99.90
2024;DHT22;1016;48.770;9.154;2023-11-18T09:15:57;11.20;99.90
2024;DHT22;1016;48.770;9.154;2023-11-18T09:18:26;11.10;99.90
2024;DHT22;1016;48.770;9.154;2023-11-18T09:20:53;11.00;99.90
2024;DHT22;1016;48.770;9.154;2023-11-18T09:23:21;11.10;99.90
2024;DHT22;1016;48.770;9.154;2023-11-18T09:25:49;11.10;99.90
2024;DHT22;1016;48.770;9.154;2023-11-18T09:28:15;11.00;99.90
2024;DHT22;1016;48.770;9.154;2023-11-18T09:30:42;11.00;99.90
2024;DHT22;1016;48.770;9.154;2023-11-18T09:33:16;11.00;99.90
2024;DHT22;1016;48.770;9.154;2023-11-18T09:35:57;11.00;99.90
2024;DHT22;1016;48.770;9.154;2023-11-18T09:38:36;11.10;99.90
2024;DHT22;1016;48.770;9.154;2023-11-18T09:41:03;11.10;99.90
2024;DHT22;1016;48.770;9.154;2023-11-18T09:43:33;11.10;99.90
2024;DHT22;1016;48.770;9.154;2023-11-18T09:46:06;11.10;99.90
2024;DHT22;1016;48.770;9.154;2023-11-18T09:48:49;11.20;99.90
2024;DHT22;1016;48.770;9.154;2023-11-18T09:51:37;11.20;99.90
2024;DHT22;1016;48.770;9.154;2023-11-18T09:54:08;11.20;99.90
2024;DHT22;1016;48.770;9.154;2023-11-18T09:57:03;11.20;99.90
2024;DHT22;1016;48.770;9.154;2023-11-18T10:00:05;11.20;99.90
2024;DHT22;1016;48.770;9.154;2023-11-18T10:02:52;11.30;99.90
2024;DHT22;1016;48.770;9.154;2023-11-18T10:05:19;11.30;99.90
2024;DHT22;1016;48.770;9.154;2023-11-18T10:07:52;11.50;99.90
2024;DHT22;1016;48.770;9.154;2023-11-18T10:10:18;11.30;99.90
2024;DHT22;1016;48.770;9.154;2023-11-18T10:12:50;11.40;99.90
2024;DHT22;1016;48.770;9.154;2023-11-18T10:15:23;11.40;99.90
2024;DHT22;1016;48.770;9.154;2023-11-18T10:17:50;11.40;99.90
2024;DHT22;1016;48.770;9.154;2023-11-18T10:20:46;11.40;99.90
2024;DHT22;1016;48.770;9.154;2023-11-18T10:23:14;11.40;99.90
2024;DHT22;1016;48.770;9.154;2023-11-18T10:25:52;11.50;99.90
2024;DHT22;1016;48.770;9.154;2023-11-18T10:28:36;11.50;99.90
2024;DHT22;1016;48.770;9.154;2023-11-18T10:31:04;11.50;99.90
2024;DHT22;1016;48.770;9.154;2023-11-18T10:33:38;11.50;99.90
2024;DHT22;1016;48.770;9.154;2023-11-18T10:36:20;11.40;99.90
2024;DHT22;1016;48.770;9.154;2023-11-18T10:38:50;11.40;99.90
2024;DHT22;1016;48.770;9.154;2023-11-18T10:41:18;11.50;99.90
2024;DHT22;1016;48.770;9.154;2023-11-18T10:43:44;11.50;99.90
2024;DHT22;1016;48.770;9.154;2023-11-18T10:46:12;11.50;99.90
2024;DHT22;1016;48.770;9.154;2023-11-18T10:48:47;11.50;99.90
2024;DHT22;1016;48.770;9.154;2023-11-18T10:51:20;11.50;99.90
2024;DHT22;1016;48.770;9.154;2023-11-18T10:53:51;11.60;99.90
2024;DHT22;1016;48.770;9.154;2023-11-18T10:56:24;11.60;99.90
2024;DHT22;1016;48.770;9.154;2023-11-18T10:58:56;11.70;99.90
2024;DHT22;1016;48.770;9.154;2023-11-18T11:01:51;11.60;99.90
2024;DHT22;1016;48.770;9.154;2023-11-18T11:04:17;11.60;99.90
2024;DHT22;1016;48.770;9.154;2023-11-18T11:06:47;11.70;99.90
2024;DHT22;1016;48.770;9.154;2023-11-18T11:09:26;11.60;99.90
2024;DHT22;1016;48.770;9.154;2023-11-18T11:12:04;11.60;99.90
2024;DHT22;1016;48.770;9.154;2023-11-18T11:14:39;11.60;99.90
2024;DHT22;1016;48.770;9.154;2023-11-18T11:17:12;11.60;99.90
2024;DHT22;1016;48.770;9.154;2023-11-18T11:19:50;11.60;99.90
2024;DHT22;1016;48.770;9.154;2023-11-18T11:22:24;11.60;99.90
2024;DHT22;1016;48.770;9.154;2023-11-18T11:25:14;11.60;99.90
2024;DHT22;1016;48.770;9.154;2023-11-18T11:30:29;11.60;99.90
2024;DHT22;1016;48.770;9.154;2023-11-18T11:35:56;11.70;99.90
2024;DHT22;1016;48.770;9.154;2023-11-18T11:38:29;11.70;99.90
2024;DHT22;1016;48.770;9.154;2023-11-18T11:40:57;11.70;99.90
2024;DHT22;1016;48.770;9.154;2023-11-18T11:43:26;11.90;99.90
2024;DHT22;1016;48.770;9.154;2023-11-18T11:45:54;11.80;99.90
2024;DHT22;1016;48.770;9.154;2023-11-18T11:48:23;11.80;99.90
2024;DHT22;1016;48.770;9.154;2023-11-18T11:51:16;11.80;99.90
2024;DHT22;1016;48.770;9.154;2023-11-18T11:53:55;12.00;99.90
2024;DHT22;1016;48.770;9.154;2023-11-18T11:56:39;11.80;99.90
2024;DHT22;1016;48.770;9.154;2023-11-18T11:59:05;11.90;99.90
2024;DHT22;1016;48.770;9.154;2023-11-18T12:01:38;11.80;99.90
2024;DHT22;1016;48.770;9.154;2023-11-18T12:04:04;11.80;99.90
2024;DHT22;1016;48.770;9.154;2023-11-18T12:06:42;11.90;99.90
2024;DHT22;1016;48.770;9.154;2023-11-18T12:09:10;11.90;99.90
2024;DHT22;1016;48.770;9.154;2023-11-18T12:11:36;11.90;99.90
2024;DHT22;1016;48.770;9.154;2023-11-18T12:14:08;11.90;99.90
2024;DHT22;1016;48.770;9.154;2023-11-18T12:17:05;11.90;99.90
2024;DHT22;1016;48.770;9.154;2023-11-18T12:19:39;12.10;99.90
2024;DHT22;1016;48.770;9.154;2023-11-18T12:22:21;11.90;99.90
2024;DHT22;1016;48.770;9.154;2023-11-18T12:36:29;11.80;99.90
2024;DHT22;1016;48.770;9.154;2023-11-18T12:42:04;11.90;99.90
2024;DHT22;1016;48.770;9.154;2023-11-18T12:47:33;11.90;99.90
2024;DHT22;1016;48.770;9.154;2023-11-18T12:50:00;11.90;99.90
2024;DHT22;1016;48.770;9.154;2023-11-18T12:52:27;12.00;99.90
2024;DHT22;1016;48.770;9.154;2023-11-18T12:54:54;11.90;99.90
2024;DHT22;1016;48.770;9.154;2023-11-18T12:57:28;12.10;99.90
2024;DHT22;1016;48.770;9.154;2023-11-18T12:59:57;12.00;99.90
2024;DHT22;1016;48.770;9.154;2023-11-18T13:02:23;12.00;99.90
2024;DHT22;1016;48.770;9.154;2023-11-18T13:04:50;12.00;99.90
2024;DHT22;1016;48.770;9.154;2023-11-18T13:07:19;12.10;99.90
2024;DHT22;1016;48.770;9.154;2023-11-18T13:09:47;12.00;99.90
2024;DHT22;1016;48.770;9.154;2023-11-18T13:12:14;12.20;99.90
2024;DHT22;1016;48.770;9.154;2023-11-18T13:14:45;12.00;99.90
2024;DHT22;1016;48.770;9.154;2023-11-18T13:17:13;12.00;99.90
2024;DHT22;1016;48.770;9.154;2023-11-18T13:19:39;12.00;99.90
2024;DHT22;1016;48.770;9.154;2023-11-18T13:22:07;11.90;99.90
2024;DHT22;1016;48.770;9.154;2023-11-18T13:24:37;11.90;99.90
2024;DHT22;1016;48.770;9.154;2023-11-18T13:27:05;11.90;99.90
2024;DHT22;1016;48.770;9.154;2023-11-18T13:29:36;12.00;99.90
2024;DHT22;1016;48.770;9.154;2023-11-18T13:32:01;12.00;99.90
2024;DHT22;1016;48.770;9.154;2023-11-18T13:34:35;12.00;99.90
2024;DHT22;1016;48.770;9.154;2023-11-18T13:37:06;12.00;99.90
2024;DHT22;1016;48.770;9.154;2023-11-18T13:39:34;12.00;99.90
2024;DHT22;1016;48.770;9.154;2023-11-18T13:42:22;12.10;99.90
2024;DHT22;1016;48.770;9.154;2023-11-18T13:44:48;12.10;99.90
2024;DHT22;1016;48.770;9.154;2023-11-18T13:47:21;12.10;99.90
2024;DHT22;1016;48.770;9.154;2023-11-18T13:49:53;12.10;99.90
2024;DHT22;1016;48.770;9.154;2023-11-18T13:52:20;12.00;99.90
2024;DHT22;1016;48.770;9.154;2023-11-18T13:54:47;12.00;99.90
2024;DHT22;1016;48.770;9.154;2023-11-18T13:57:13;11.90;99.90
2024;DHT22;1016;48.770;9.154;2023-11-18T13:59:39;12.00;99.90
2024;DHT22;1016;48.770;9.154;2023-11-18T14:02:06;12.20;99.90
2024;DHT22;1016;48.770;9.154;2023-11-18T14:04:34;11.90;99.90
2024;DHT22;1016;48.770;9.154;2023-11-18T14:07:01;12.00;99.90
2024;DHT22;1016;48.770;9.154;2023-11-18T14:09:31;11.90;99.90
2024;DHT22;1016;48.770;9.154;2023-11-18T14:12:01;11.90;99.90
2024;DHT22;1016;48.770;9.154;2023-11-18T14:14:27;12.00;99.90
2024;DHT22;1016;48.770;9.154;2023-11-18T14:16:57;12.00;99.90
2024;DHT22;1016;48.770;9.154;2023-11-18T14:19:26;12.10;99.90
2024;DHT22;1016;48.770;9.154;2023-11-18T14:21:53;12.10;99.90
2024;DHT22;1016;48.770;9.154;2023-11-18T14:24:20;12.20;99.90
2024;DHT22;1016;48.770;9.154;2023-11-18T14:26:48;12.10;99.90
2024;DHT22;1016;48.770;9.154;2023-11-18T14:29:16;12.10;99.90
2024;DHT22;1016;48.770;9.154;2023-11-18T14:31:41;12.10;99.90
2024;DHT22;1016;48.770;9.154;2023-11-18T14:34:08;12.20;99.90
2024;DHT22;1016;48.770;9.154;2023-11-18T14:36:36;12.20;99.90
2024;DHT22;1016;48.770;9.154;2023-11-18T14:39:04;12.00;99.90
2024;DHT22;1016;48.770;9.154;2023-11-18T14:41:30;12.00;99.90
2024;DHT22;1016;48.770;9.154;2023-11-18T14:43:57;12.00;99.90
2024;DHT22;1016;48.770;9.154;2023-11-18T14:46:27;12.00;99.90
2024;DHT22;1016;48.770;9.154;2023-11-18T14:48:53;12.00;99.90
2024;DHT22;1016;48.770;9.154;2023-11-18T14:51:18;12.10;99.90
2024;DHT22;1016;48.770;9.154;2023-11-18T14:53:44;12.20;99.90
2024;DHT22;1016;48.770;9.154;2023-11-18T14:56:10;12.10;99.90
2024;DHT22;1016;48.770;9.154;2023-11-18T14:58:36;12.10;99.90
2024;DHT22;1016;48.770;9.154;2023-11-18T15:01:02;12.10;99.90
2024;DHT22;1016;48.770;9.154;2023-11-18T15:03:28;12.10;99.90
2024;DHT22;1016;48.770;9.154;2023-11-18T15:05:54;12.10;99.90
2024;DHT22;1016;48.770;9.154;2023-11-18T15:08:20;12.10;99.90
2024;DHT22;1016;48.770;9.154;2023-11-18T15:10:46;12.30;99.90
2024;DHT22;1016;48.770;9.154;2023-11-18T15:13:11;12.10;99.90
2024;DHT22;1016;48.770;9.154;2023-11-18T15:15:45;12.10;99.90
2024;DHT22;1016;48.770;9.154;2023-11-18T15:18:14;12.10;99.90
2024;DHT22;1016;48.770;9.154;2023-11-18T15:20:42;12.10;99.90
2024;DHT22;1016;48.770;9.154;2023-11-18T15:23:09;12.20;99.90
2024;DHT22;1016;48.770;9.154;2023-11-18T15:25:34;12.30;99.90
2024;DHT22;1016;48.770;9.154;2023-11-18T15:28:00;12.20;99.90
2024;DHT22;1016;48.770;9.154;2023-11-18T15:30:26;12.20;99.90
2024;DHT22;1016;48.770;9.154;2023-11-18T15:32:53;12.30;99.90
2024;DHT22;1016;48.770;9.154;2023-11-18T15:35:19;12.30;99.90
2024;DHT22;1016;48.770;9.154;2023-11-18T15:37:47;12.10;99.90
2024;DHT22;1016;48.770;9.154;2023-11-18T15:40:15;12.20;99.90
2024;DHT22;1016;48.770;9.154;2023-11-18T15:42:46;12.10;99.90
2024;DHT22;1016;48.770;9.154;2023-11-18T15:45:20;12.10;99.90
2024;DHT22;1016;48.770;9.154;2023-11-18T15:47:47;12.20;99.90
2024;DHT22;1016;48.770;9.154;2023-11-18T15:50:14;12.20;99.90
2024;DHT22;1016;48.770;9.154;2023-11-18T15:52:49;12.00;99.90
2024;DHT22;1016;48.770;9.154;2023-11-18T15:55:15;12.10;99.90
2024;DHT22;1016;48.770;9.154;2023-11-18T15:57:44;12.10;99.90
2024;DHT22;1016;48.770;9.154;2023-11-18T16:00:11;12.10;99.90
2024;DHT22;1016;48.770;9.154;2023-11-18T16:02:47;12.10;99.90
2024;DHT22;1016;48.770;9.154;2023-11-18T16:05:18;12.10;99.90
2024;DHT22;1016;48.770;9.154;2023-11-18T16:07:45;12.30;99.90
2024;DHT22;1016;48.770;9.154;2023-11-18T16:10:12;12.10;99.90
2024;DHT22;1016;48.770;9.154;2023-11-18T16:12:47;12.10;99.90
2024;DHT22;1016;48.770;9.154;2023-11-18T16:15:13;12.10;99.90
2024;DHT22;1016;48.770;9.154;2023-11-18T16:17:40;12.30;99.90
2024;DHT22;1016;48.770;9.154;2023-11-18T16:20:07;12.00;99.90
2024;DHT22;1016;48.770;9.154;2023-11-18T16:22:34;12.10;99.90
2024;DHT22;1016;48.770;9.154;2023-11-18T16:24:59;12.10;99.90
2024;DHT22;1016;48.770;9.154;2023-11-18T16:27:25;12.10;99.90
2024;DHT22;1016;48.770;9.154;2023-11-18T16:29:52;12.00;99.90
2024;DHT22;1016;48.770;9.154;2023-11-18T16:32:17;12.00;99.90
2024;DHT22;1016;48.770;9.154;2023-11-18T16:34:43;12.00;99.90